Time;durP1;ratioP1;P1;durP2;ratioP2;P2;SDS_P1;SDS_P2;PMS_P1;PMS_P2;Temp;Humidity;BMP_temperature;BMP_pressure;BME280_temperature;BME280_humidity;BME280_pressure;Samples;Min_cycle;Max_cycle;Signal;HPM_P1;HPM_P2
2023/04/16 00:00:56;;;;;;;2.85;2.08;;;;;;;;;;6238814;23;20430;-60
2023/04/16 00:03:22;;;;;;;3.78;2.83;;;;;;;;;;6239378;23;20000;-61
2023/04/16 00:05:49;;;;;;;3.78;2.65;;;;;;;;;;6238527;23;20004;-59
2023/04/16 00:08:16;;;;;;;4.05;2.58;;;;;;;;;;6241742;23;20031;-59
2023/04/16 00:10:43;;;;;;;5.32;2.80;;;;;;;;;;6245260;23;20367;-60
2023/04/16 00:13:09;;;;;;;6.30;2.67;;;;;;;;;;6218412;23;20004;-59
2023/04/16 00:15:36;;;;;;;4.45;2.63;;;;;;;;;;6245188;23;20004;-60
2023/04/16 00:18:03;;;;;;;3.65;2.60;;;;;;;;;;6217915;23;20008;-60
2023/04/16 00:20:29;;;;;;;3.17;2.05;;;;;;;;;;6242131;23;20036;-59
2023/04/16 00:22:56;;;;;;;5.75;2.95;;;;;;;;;;6238966;23;20004;-59
2023/04/16 00:25:23;;;;;;;4.20;2.40;;;;;;;;;;6239105;23;20062;-60
2023/04/16 00:27:49;;;;;;;5.70;3.35;;;;;;;;;;6212154;23;20016;-59
2023/04/16 00:30:16;;;;;;;7.20;3.38;;;;;;;;;;6240955;23;20004;-60
2023/04/16 00:51:00;;;;;;;9.88;4.43;;;;;;;;;;5085038;27;2113096;-62
2023/04/16 00:53:27;;;;;;;11.97;5.10;;;;;;;;;;5125338;28;20055;-66
2023/04/16 00:55:56;;;;;;;13.13;3.77;;;;;;;;;;5125474;28;20477;-61
2023/04/16 00:58:22;;;;;;;16.90;4.83;;;;;;;;;;5125147;28;20031;-61
2023/04/16 01:00:50;;;;;;;4.70;3.27;;;;;;;;;;5125771;28;20448;-61
2023/04/16 01:03:17;;;;;;;8.87;3.97;;;;;;;;;;5130241;28;20381;-61
2023/04/16 01:05:44;;;;;;;5.93;3.73;;;;;;;;;;5130452;28;20027;-60
2023/04/16 01:08:18;;;;;;;11.03;5.43;;;;;;;;;;5130364;28;20015;-60
2023/04/16 01:10:45;;;;;;;7.80;4.63;;;;;;;;;;5130237;28;20026;-59
2023/04/16 01:13:12;;;;;;;9.83;4.50;;;;;;;;;;5128827;28;20461;-60
2023/04/16 01:15:38;;;;;;;14.60;3.70;;;;;;;;;;5125116;28;20047;-60
2023/04/16 01:18:34;;;;;;;7.97;4.33;;;;;;;;;;5125045;28;20027;-61
2023/04/16 01:21:01;;;;;;;9.53;3.97;;;;;;;;;;5103736;28;20081;-61
2023/04/16 01:23:28;;;;;;;8.63;4.20;;;;;;;;;;5125726;28;20473;-61
2023/04/16 01:25:54;;;;;;;7.07;4.37;;;;;;;;;;5129800;28;20094;-61
2023/04/16 01:28:21;;;;;;;8.00;4.90;;;;;;;;;;5129842;28;20023;-61
2023/04/16 01:30:48;;;;;;;7.20;5.53;;;;;;;;;;5129962;28;20027;-61
2023/04/16 01:33:16;;;;;;;8.40;5.57;;;;;;;;;;5129725;28;20469;-61
2023/04/16 01:35:43;;;;;;;6.57;4.67;;;;;;;;;;5128593;28;20047;-61
2023/04/16 01:38:10;;;;;;;9.50;5.87;;;;;;;;;;5124425;28;20029;-61
2023/04/16 01:40:37;;;;;;;7.67;5.73;;;;;;;;;;5124727;28;20035;-60
2023/04/16 01:43:04;;;;;;;16.37;6.53;;;;;;;;;;5124288;28;20067;-61
2023/04/16 01:45:31;;;;;;;13.57;6.73;;;;;;;;;;5124827;28;20024;-61
2023/04/16 01:47:58;;;;;;;7.10;5.43;;;;;;;;;;5129515;28;20019;-61
2023/04/16 01:50:25;;;;;;;10.87;5.90;;;;;;;;;;5124419;28;20024;-61
2023/04/16 01:52:51;;;;;;;10.20;6.17;;;;;;;;;;5115790;28;20043;-61
2023/04/16 01:55:18;;;;;;;9.53;6.03;;;;;;;;;;5115791;28;20523;-61
2023/04/16 01:57:45;;;;;;;10.70;6.97;;;;;;;;;;5115267;28;20094;-61
2023/04/16 02:00:12;;;;;;;9.00;5.93;;;;;;;;;;5110317;28;20024;-62
2023/04/16 02:02:40;;;;;;;10.60;5.67;;;;;;;;;;5110511;28;20479;-61
2023/04/16 02:05:07;;;;;;;6.03;4.70;;;;;;;;;;5110315;28;20026;-61
2023/04/16 02:07:34;;;;;;;14.13;5.37;;;;;;;;;;5110509;28;20023;-61
2023/04/16 02:10:00;;;;;;;4.90;3.53;;;;;;;;;;5115154;28;20035;-61
2023/04/16 02:12:27;;;;;;;14.23;5.37;;;;;;;;;;5115355;28;20031;-61
2023/04/16 02:14:54;;;;;;;8.13;5.40;;;;;;;;;;5115469;28;20461;-61
2023/04/16 02:17:20;;;;;;;10.87;6.03;;;;;;;;;;5115235;28;20103;-61
2023/04/16 02:19:47;;;;;;;7.47;5.83;;;;;;;;;;5115064;28;20474;-61
2023/04/16 02:22:14;;;;;;;8.30;4.97;;;;;;;;;;5110104;28;20027;-61
2023/04/16 02:24:41;;;;;;;9.53;5.33;;;;;;;;;;5110447;28;20614;-61
2023/04/16 02:27:07;;;;;;;5.33;4.60;;;;;;;;;;5110143;28;20024;-60
2023/04/16 02:29:34;;;;;;;8.97;4.80;;;;;;;;;;5110117;28;20098;-61
2023/04/16 02:32:01;;;;;;;8.87;5.47;;;;;;;;;;5114041;28;20042;-61
2023/04/16 02:34:27;;;;;;;7.80;4.47;;;;;;;;;;5115027;28;20024;-61
2023/04/16 02:36:54;;;;;;;8.10;4.97;;;;;;;;;;5114553;28;20465;-60
2023/04/16 02:39:21;;;;;;;13.87;7.10;;;;;;;;;;5114677;28;20474;-61
2023/04/16 02:41:48;;;;;;;6.63;4.67;;;;;;;;;;5114864;28;20031;-59
2023/04/16 02:44:15;;;;;;;10.13;5.67;;;;;;;;;;5110502;28;20099;-61
2023/04/16 02:46:41;;;;;;;5.27;4.30;;;;;;;;;;5109828;28;20020;-63
2023/04/16 02:49:08;;;;;;;6.03;2.50;;;;;;;;;;5109730;28;20035;-61
2023/04/16 02:51:35;;;;;;;22.47;3.67;;;;;;;;;;5109385;28;20110;-61
2023/04/16 02:54:02;;;;;;;5.17;3.63;;;;;;;;;;5112762;28;20020;-61
2023/04/16 02:56:28;;;;;;;4.57;3.37;;;;;;;;;;5114541;28;20019;-61
2023/04/16 02:58:55;;;;;;;5.90;3.90;;;;;;;;;;5114462;28;20031;-61
2023/04/16 03:01:22;;;;;;;5.67;3.50;;;;;;;;;;5114299;28;20406;-61
2023/04/16 03:03:48;;;;;;;5.53;4.50;;;;;;;;;;5113679;28;20030;-61
2023/04/16 03:06:15;;;;;;;4.47;3.83;;;;;;;;;;5110819;28;20023;-61
2023/04/16 03:08:42;;;;;;;5.40;4.17;;;;;;;;;;5109211;28;20031;-61
2023/04/16 03:11:08;;;;;;;9.57;4.77;;;;;;;;;;5109151;28;20020;-61
2023/04/16 03:13:35;;;;;;;8.83;3.93;;;;;;;;;;5108586;28;20034;-62
2023/04/16 03:16:02;;;;;;;7.47;4.37;;;;;;;;;;5111858;28;20030;-62
2023/04/16 03:18:29;;;;;;;3.83;3.43;;;;;;;;;;5113937;28;20024;-63
2023/04/16 03:20:55;;;;;;;5.90;4.30;;;;;;;;;;5114232;28;20023;-61
2023/04/16 03:23:22;;;;;;;5.10;3.23;;;;;;;;;;5113956;28;20106;-61
2023/04/16 03:25:49;;;;;;;6.83;4.10;;;;;;;;;;5113980;28;20020;-61
2023/04/16 03:28:15;;;;;;;4.07;3.27;;;;;;;;;;5111124;28;20016;-60
2023/04/16 03:30:42;;;;;;;5.03;3.63;;;;;;;;;;5108381;28;20079;-61
2023/04/16 03:33:09;;;;;;;3.57;2.87;;;;;;;;;;5108781;28;20358;-60
2023/04/16 03:35:35;;;;;;;7.23;3.80;;;;;;;;;;5108695;28;20059;-60
2023/04/16 03:38:02;;;;;;;8.47;4.17;;;;;;;;;;5110614;28;20094;-60
2023/04/16 03:40:29;;;;;;;12.20;4.40;;;;;;;;;;5113442;28;20076;-60
2023/04/16 03:42:55;;;;;;;3.23;2.63;;;;;;;;;;5113782;28;20023;-60
2023/04/16 03:45:22;;;;;;;6.17;3.40;;;;;;;;;;5113624;28;20065;-60
2023/04/16 03:47:51;;;;;;;4.63;3.27;;;;;;;;;;5113601;28;20023;-60
2023/04/16 03:50:18;;;;;;;6.50;2.80;;;;;;;;;;5111171;28;20423;-60
2023/04/16 03:52:46;;;;;;;3.10;2.23;;;;;;;;;;5108325;28;20108;-60
2023/04/16 03:55:13;;;;;;;3.77;3.07;;;;;;;;;;5108437;28;20089;-60
2023/04/16 03:57:40;;;;;;;5.07;3.77;;;;;;;;;;5108330;28;20069;-60
2023/04/16 04:00:07;;;;;;;7.30;4.00;;;;;;;;;;5109452;28;20040;-59
2023/04/16 04:02:34;;;;;;;5.03;3.40;;;;;;;;;;5113209;28;20065;-60
2023/04/16 04:05:01;;;;;;;4.63;3.43;;;;;;;;;;5113440;28;20023;-59
2023/04/16 04:07:28;;;;;;;3.90;3.00;;;;;;;;;;5112710;28;20030;-59
2023/04/16 04:09:54;;;;;;;5.97;3.73;;;;;;;;;;5113231;28;20019;-59
2023/04/16 04:12:21;;;;;;;7.20;3.57;;;;;;;;;;5111682;28;20024;-60
2023/04/16 04:14:48;;;;;;;4.87;3.57;;;;;;;;;;5107905;28;20023;-60
2023/04/16 04:17:14;;;;;;;4.80;3.67;;;;;;;;;;5108156;28;20023;-59
2023/04/16 04:19:41;;;;;;;4.47;3.13;;;;;;;;;;5089651;28;20562;-59
2023/04/16 04:22:08;;;;;;;4.83;4.03;;;;;;;;;;5108795;28;20019;-59
2023/04/16 04:24:34;;;;;;;4.80;3.27;;;;;;;;;;5112697;28;20081;-59
2023/04/16 04:27:01;;;;;;;4.67;3.43;;;;;;;;;;5112898;28;20020;-60
2023/04/16 04:29:28;;;;;;;4.40;3.53;;;;;;;;;;5113121;28;20034;-59
2023/04/16 04:31:55;;;;;;;5.40;3.03;;;;;;;;;;5112942;28;20473;-59
2023/04/16 04:34:22;;;;;;;8.70;2.90;;;;;;;;;;5112022;28;20024;-59
2023/04/16 04:36:48;;;;;;;4.13;2.57;;;;;;;;;;5107732;28;20354;-60
2023/04/16 04:39:15;;;;;;;5.00;3.10;;;;;;;;;;5107885;28;20039;-60
2023/04/16 04:41:42;;;;;;;3.93;2.83;;;;;;;;;;5107650;28;20016;-59
2023/04/16 04:44:08;;;;;;;3.93;3.03;;;;;;;;;;5107514;28;20023;-60
2023/04/16 04:46:35;;;;;;;3.97;2.97;;;;;;;;;;5112941;28;20027;-59
2023/04/16 04:49:02;;;;;;;11.03;3.73;;;;;;;;;;5112764;28;20493;-60
2023/04/16 04:51:29;;;;;;;3.30;2.57;;;;;;;;;;5112703;28;20078;-60
2023/04/16 04:53:55;;;;;;;4.33;3.40;;;;;;;;;;5112797;28;20051;-60
2023/04/16 04:56:22;;;;;;;6.73;3.00;;;;;;;;;;5112649;28;20016;-59
2023/04/16 04:58:51;;;;;;;9.87;3.80;;;;;;;;;;5107362;28;20032;-59
2023/04/16 05:01:18;;;;;;;7.77;3.97;;;;;;;;;;5107426;28;20039;-59
2023/04/16 05:03:45;;;;;;;4.80;3.53;;;;;;;;;;5107580;28;20047;-59
2023/04/16 05:06:11;;;;;;;6.97;3.77;;;;;;;;;;5107550;28;20024;-59
2023/04/16 05:08:38;;;;;;;4.87;3.67;;;;;;;;;;5112165;28;20055;-59
2023/04/16 05:11:07;;;;;;;3.80;2.80;;;;;;;;;;5112555;28;20495;-60
2023/04/16 05:13:34;;;;;;;5.00;3.43;;;;;;;;;;5112606;28;20019;-59
2023/04/16 05:16:00;;;;;;;3.83;2.80;;;;;;;;;;5112347;28;20020;-59
2023/04/16 05:18:27;;;;;;;4.33;3.43;;;;;;;;;;5112073;28;20107;-59
2023/04/16 05:20:54;;;;;;;4.00;3.43;;;;;;;;;;5107694;28;20020;-59
2023/04/16 05:23:21;;;;;;;5.90;2.90;;;;;;;;;;5107494;28;20458;-60
2023/04/16 05:25:48;;;;;;;5.33;3.43;;;;;;;;;;5108603;28;20024;-59
2023/04/16 05:28:14;;;;;;;6.00;4.27;;;;;;;;;;5111285;28;20027;-59
2023/04/16 05:30:41;;;;;;;4.50;3.10;;;;;;;;;;5115172;28;20019;-59
2023/04/16 05:33:08;;;;;;;4.37;2.83;;;;;;;;;;5116059;28;20028;-59
2023/04/16 05:35:34;;;;;;;3.87;3.27;;;;;;;;;;5115696;28;20553;-59
2023/04/16 05:38:03;;;;;;;4.33;3.40;;;;;;;;;;5116137;28;20385;-59
2023/04/16 05:40:30;;;;;;;5.93;3.67;;;;;;;;;;5115876;28;20049;-60
2023/04/16 05:42:56;;;;;;;3.63;3.07;;;;;;;;;;5111783;28;20023;-59
2023/04/16 05:45:23;;;;;;;5.17;3.93;;;;;;;;;;5110801;28;20027;-59
2023/04/16 05:47:50;;;;;;;3.60;2.63;;;;;;;;;;5110946;28;20023;-59
2023/04/16 05:50:16;;;;;;;7.80;3.97;;;;;;;;;;5110798;28;20074;-59
2023/04/16 05:52:43;;;;;;;7.33;3.77;;;;;;;;;;5114007;28;20075;-59
2023/04/16 05:55:10;;;;;;;4.93;3.33;;;;;;;;;;5115762;28;20022;-59
2023/04/16 05:57:36;;;;;;;4.60;3.40;;;;;;;;;;5115676;28;20023;-59
2023/04/16 06:00:03;;;;;;;5.03;3.63;;;;;;;;;;5115703;28;20106;-59
2023/04/16 06:02:30;;;;;;;3.57;3.07;;;;;;;;;;5115798;28;20028;-59
2023/04/16 06:04:57;;;;;;;3.73;3.10;;;;;;;;;;5112166;28;20512;-59
2023/04/16 06:07:24;;;;;;;5.87;3.83;;;;;;;;;;5110440;28;20856;-59
2023/04/16 06:09:50;;;;;;;4.47;3.43;;;;;;;;;;5110373;28;20015;-59
2023/04/16 06:12:17;;;;;;;8.30;4.73;;;;;;;;;;5110028;28;20031;-59
2023/04/16 06:14:44;;;;;;;3.40;2.70;;;;;;;;;;5112978;28;20346;-59
2023/04/16 06:17:11;;;;;;;6.63;3.10;;;;;;;;;;5115536;28;20019;-59
2023/04/16 06:19:37;;;;;;;3.43;2.87;;;;;;;;;;5115220;28;20080;-59
2023/04/16 06:22:05;;;;;;;4.97;3.27;;;;;;;;;;5115259;28;20085;-59
2023/04/16 06:24:32;;;;;;;4.20;3.50;;;;;;;;;;5114919;28;20110;-59
2023/04/16 06:26:58;;;;;;;4.43;3.10;;;;;;;;;;5112291;28;20024;-59
2023/04/16 06:29:25;;;;;;;4.57;2.57;;;;;;;;;;5110024;28;20483;-59
2023/04/16 06:31:52;;;;;;;4.40;3.47;;;;;;;;;;5109900;28;20019;-60
2023/04/16 06:34:18;;;;;;;3.70;2.63;;;;;;;;;;5110097;28;20470;-59
2023/04/16 06:36:45;;;;;;;4.03;3.27;;;;;;;;;;5111943;28;20477;-59
2023/04/16 06:39:12;;;;;;;9.83;4.07;;;;;;;;;;5114881;28;20059;-59
2023/04/16 06:41:38;;;;;;;3.63;3.13;;;;;;;;;;5114760;28;20024;-59
2023/04/16 06:44:05;;;;;;;7.47;4.33;;;;;;;;;;5114907;28;20031;-59
2023/04/16 06:46:32;;;;;;;4.67;2.97;;;;;;;;;;5114442;28;20445;-59
2023/04/16 06:48:58;;;;;;;3.07;2.53;;;;;;;;;;5112486;28;20085;-60
2023/04/16 06:51:25;;;;;;;4.03;2.80;;;;;;;;;;5109629;28;20530;-59
2023/04/16 06:53:52;;;;;;;4.10;3.23;;;;;;;;;;5109507;28;20028;-59
2023/04/16 06:56:18;;;;;;;3.60;2.60;;;;;;;;;;5109743;28;20023;-59
2023/04/16 06:58:45;;;;;;;3.70;2.97;;;;;;;;;;5110907;28;20023;-59
2023/04/16 07:01:12;;;;;;;3.53;3.00;;;;;;;;;;5114612;28;20024;-59
2023/04/16 07:03:38;;;;;;;4.93;3.53;;;;;;;;;;5113934;28;20529;-59
2023/04/16 07:06:05;;;;;;;3.20;2.50;;;;;;;;;;5114473;28;20059;-59
2023/04/16 07:08:32;;;;;;;6.23;2.83;;;;;;;;;;5114483;28;20049;-59
2023/04/16 07:10:59;;;;;;;3.43;2.93;;;;;;;;;;5112567;28;20031;-59
2023/04/16 07:13:26;;;;;;;6.53;3.53;;;;;;;;;;5090844;28;20024;-59
2023/04/16 07:15:53;;;;;;;5.10;2.73;;;;;;;;;;5108932;28;20084;-59
2023/04/16 07:18:20;;;;;;;4.23;3.00;;;;;;;;;;5109163;28;20020;-60
2023/04/16 07:20:47;;;;;;;5.37;2.90;;;;;;;;;;5109569;28;20106;-59
2023/04/16 07:23:14;;;;;;;2.27;2.00;;;;;;;;;;5114000;28;20019;-59
2023/04/16 07:25:40;;;;;;;5.00;3.43;;;;;;;;;;5114108;28;20024;-59
2023/04/16 07:28:07;;;;;;;3.07;2.60;;;;;;;;;;5114020;28;20020;-59
2023/04/16 07:30:34;;;;;;;4.17;3.00;;;;;;;;;;5113909;28;20080;-59
2023/04/16 07:33:02;;;;;;;3.67;2.70;;;;;;;;;;5112389;28;20019;-59
2023/04/16 07:35:29;;;;;;;4.17;3.20;;;;;;;;;;5108893;28;20343;-59
2023/04/16 07:37:56;;;;;;;2.33;1.97;;;;;;;;;;5108409;28;20081;-59
2023/04/16 07:40:23;;;;;;;4.67;3.50;;;;;;;;;;5108663;28;20355;-59
2023/04/16 07:42:50;;;;;;;5.00;3.70;;;;;;;;;;5109004;28;20027;-59
2023/04/16 07:45:17;;;;;;;4.80;3.10;;;;;;;;;;5113583;28;20504;-59
2023/04/16 07:47:44;;;;;;;2.33;2.00;;;;;;;;;;5113509;28;20378;-59
2023/04/16 07:50:12;;;;;;;3.23;2.73;;;;;;;;;;5113009;28;20104;-59
2023/04/16 07:52:40;;;;;;;3.00;2.57;;;;;;;;;;5094948;28;20456;-59
2023/04/16 07:55:07;;;;;;;5.93;3.20;;;;;;;;;;5112590;28;20101;-59
2023/04/16 07:57:34;;;;;;;2.80;2.17;;;;;;;;;;5108236;28;20016;-59
2023/04/16 08:00:03;;;;;;;2.60;1.97;;;;;;;;;;5108387;28;20035;-59
2023/04/16 08:02:30;;;;;;;4.03;2.40;;;;;;;;;;5108203;28;20027;-59
2023/04/16 08:04:57;;;;;;;4.77;3.37;;;;;;;;;;5108563;28;20370;-59
2023/04/16 08:07:24;;;;;;;2.53;2.27;;;;;;;;;;5113251;28;20032;-59
2023/04/16 08:09:53;;;;;;;3.40;2.27;;;;;;;;;;5112767;28;20020;-59
2023/04/16 08:12:20;;;;;;;7.23;3.27;;;;;;;;;;5113281;28;20019;-59
2023/04/16 08:14:47;;;;;;;4.13;2.83;;;;;;;;;;5112945;28;20103;-59
2023/04/16 08:17:14;;;;;;;4.20;3.07;;;;;;;;;;5112807;28;20498;-59
2023/04/16 08:19:42;;;;;;;3.53;2.90;;;;;;;;;;5108105;28;20088;-59
2023/04/16 08:22:09;;;;;;;3.80;2.83;;;;;;;;;;5107882;28;20355;-59
2023/04/16 08:24:36;;;;;;;4.13;3.07;;;;;;;;;;5107793;28;20429;-59
2023/04/16 08:27:03;;;;;;;4.93;3.87;;;;;;;;;;5107708;28;20023;-59
2023/04/16 08:29:30;;;;;;;4.57;3.10;;;;;;;;;;5112830;28;20659;-59
2023/04/16 08:31:56;;;;;;;18.63;3.97;;;;;;;;;;5112827;28;20474;-58
2023/04/16 08:34:23;;;;;;;12.90;3.87;;;;;;;;;;5113080;28;20377;-59
2023/04/16 08:36:50;;;;;;;6.27;3.63;;;;;;;;;;5094778;28;20027;-59
2023/04/16 08:39:16;;;;;;;3.80;3.20;;;;;;;;;;5112862;28;20111;-59
2023/04/16 08:41:44;;;;;;;5.50;3.53;;;;;;;;;;5107184;28;20052;-59
2023/04/16 08:44:21;;;;;;;5.93;3.27;;;;;;;;;;5107724;28;20023;-59
2023/04/16 08:46:48;;;;;;;6.20;2.70;;;;;;;;;;5107696;28;20026;-59
2023/04/16 08:49:19;;;;;;;7.70;2.73;;;;;;;;;;5107722;28;20031;-59
2023/04/16 08:51:50;;;;;;;3.37;2.90;;;;;;;;;;5112470;28;20028;-58
2023/04/16 08:54:24;;;;;;;3.77;3.37;;;;;;;;;;5112396;28;20027;-59
2023/04/16 08:56:51;;;;;;;8.60;4.03;;;;;;;;;;5112663;28;20071;-59
2023/04/16 08:59:18;;;;;;;2.33;2.13;;;;;;;;;;5112508;28;20470;-59
2023/04/16 09:01:45;;;;;;;3.97;3.00;;;;;;;;;;5115158;28;20051;-59
2023/04/16 09:04:13;;;;;;;3.60;2.80;;;;;;;;;;5111543;28;20079;-59
2023/04/16 09:06:40;;;;;;;6.33;3.33;;;;;;;;;;5111568;28;20370;-59
2023/04/16 09:09:08;;;;;;;10.97;3.33;;;;;;;;;;5111322;28;20617;-60
2023/04/16 09:11:35;;;;;;;7.80;3.97;;;;;;;;;;5111727;28;20019;-59
2023/04/16 09:14:02;;;;;;;4.37;3.13;;;;;;;;;;5116389;28;20019;-59
2023/04/16 09:16:33;;;;;;;2.53;2.00;;;;;;;;;;5116674;28;20488;-59
2023/04/16 09:19:00;;;;;;;4.43;3.33;;;;;;;;;;5116366;28;20023;-59
2023/04/16 09:21:26;;;;;;;3.13;2.73;;;;;;;;;;5116464;28;20370;-59
2023/04/16 09:23:53;;;;;;;4.60;3.83;;;;;;;;;;5116277;28;20034;-59
2023/04/16 09:26:20;;;;;;;4.90;3.20;;;;;;;;;;5110944;28;20145;-59
2023/04/16 09:28:50;;;;;;;4.37;3.30;;;;;;;;;;5111248;28;20034;-58
2023/04/16 09:31:17;;;;;;;6.13;3.93;;;;;;;;;;5111047;28;20031;-59
2023/04/16 09:34:00;;;;;;;4.63;3.87;;;;;;;;;;5111246;28;20111;-59
2023/04/16 09:36:27;;;;;;;6.33;4.10;;;;;;;;;;5116214;28;20028;-59
2023/04/16 09:38:54;;;;;;;4.20;3.33;;;;;;;;;;5115808;28;20027;-59
2023/04/16 09:41:26;;;;;;;4.03;2.87;;;;;;;;;;5115880;28;20020;-59
2023/04/16 09:43:58;;;;;;;4.57;3.07;;;;;;;;;;5116142;28;20339;-59
2023/04/16 09:46:29;;;;;;;3.60;2.97;;;;;;;;;;5115050;28;20028;-59
2023/04/16 09:48:56;;;;;;;4.00;3.13;;;;;;;;;;5110620;28;20051;-59
2023/04/16 09:51:25;;;;;;;4.93;3.33;;;;;;;;;;5110447;28;20028;-59
2023/04/16 09:53:53;;;;;;;4.30;3.80;;;;;;;;;;5110628;28;20089;-59
2023/04/16 09:56:24;;;;;;;4.17;3.37;;;;;;;;;;5110875;28;20031;-59
2023/04/16 09:58:51;;;;;;;6.47;4.20;;;;;;;;;;5115740;28;20019;-59
2023/04/16 10:01:18;;;;;;;3.87;3.03;;;;;;;;;;5115848;28;20466;-59
2023/04/16 10:03:49;;;;;;;4.83;3.67;;;;;;;;;;5115618;28;20052;-59
2023/04/16 10:06:18;;;;;;;3.20;2.90;;;;;;;;;;5115615;28;20098;-59
2023/04/16 10:08:51;;;;;;;4.97;3.70;;;;;;;;;;5114541;28;20514;-59
2023/04/16 10:11:18;;;;;;;6.00;3.80;;;;;;;;;;5109886;28;20032;-59
2023/04/16 10:13:45;;;;;;;7.47;4.07;;;;;;;;;;5110334;28;20028;-58
2023/04/16 10:16:12;;;;;;;6.23;3.73;;;;;;;;;;5110476;28;20085;-59
2023/04/16 10:18:42;;;;;;;7.73;5.23;;;;;;;;;;5110182;28;20030;-59
2023/04/16 10:21:11;;;;;;;5.20;3.97;;;;;;;;;;5115267;28;20024;-58
2023/04/16 10:23:41;;;;;;;4.40;3.20;;;;;;;;;;5114946;28;20023;-58
2023/04/16 10:26:08;;;;;;;6.40;3.40;;;;;;;;;;5115161;28;20024;-60
2023/04/16 10:28:35;;;;;;;3.57;2.83;;;;;;;;;;5115165;28;20087;-58
2023/04/16 10:31:04;;;;;;;9.70;3.53;;;;;;;;;;5114063;28;20111;-58
2023/04/16 10:33:35;;;;;;;4.10;3.60;;;;;;;;;;5091685;28;20016;-59
2023/04/16 10:36:11;;;;;;;4.07;2.47;;;;;;;;;;5110134;28;20591;-59
2023/04/16 10:38:41;;;;;;;3.33;2.53;;;;;;;;;;5109834;28;20027;-58
2023/04/16 10:41:08;;;;;;;6.37;2.93;;;;;;;;;;5110352;28;20028;-59
2023/04/16 10:43:45;;;;;;;3.67;3.30;;;;;;;;;;5114985;28;20019;-58
2023/04/16 10:46:17;;;;;;;5.17;3.53;;;;;;;;;;5115266;28;20474;-58
2023/04/16 10:48:44;;;;;;;6.73;3.97;;;;;;;;;;5114789;28;20035;-58
2023/04/16 10:51:31;;;;;;;6.57;3.47;;;;;;;;;;5114707;28;20039;-58
2023/04/16 10:54:04;;;;;;;3.03;2.63;;;;;;;;;;5111897;28;20036;-59
2023/04/16 10:56:34;;;;;;;4.13;3.10;;;;;;;;;;5109426;28;20020;-59
2023/04/16 10:59:01;;;;;;;5.07;3.60;;;;;;;;;;5109308;28;20156;-59
2023/04/16 11:01:32;;;;;;;4.37;3.83;;;;;;;;;;5109321;28;20020;-58
2023/04/16 11:04:03;;;;;;;5.17;3.80;;;;;;;;;;5111345;28;20054;-59
2023/04/16 11:06:30;;;;;;;5.73;4.07;;;;;;;;;;5114268;28;20069;-59
2023/04/16 11:08:57;;;;;;;4.43;3.30;;;;;;;;;;5114463;28;20041;-59
2023/04/16 11:11:24;;;;;;;3.90;3.43;;;;;;;;;;5114484;28;20031;-58
2023/04/16 11:13:55;;;;;;;3.37;2.70;;;;;;;;;;5114148;28;20051;-58
2023/04/16 11:16:21;;;;;;;4.33;3.57;;;;;;;;;;5111655;28;20356;-59
2023/04/16 11:18:48;;;;;;;4.60;3.43;;;;;;;;;;5109226;28;20058;-59
2023/04/16 11:21:15;;;;;;;3.37;2.57;;;;;;;;;;5108975;28;20339;-58
2023/04/16 11:23:48;;;;;;;4.33;3.57;;;;;;;;;;5108006;28;20248;-59
2023/04/16 11:26:25;;;;;;;3.90;3.27;;;;;;;;;;5111097;28;20275;-58
2023/04/16 11:28:52;;;;;;;5.27;3.30;;;;;;;;;;5114020;28;20263;-58
2023/04/16 11:31:19;;;;;;;6.53;4.07;;;;;;;;;;5113643;28;20264;-59
2023/04/16 11:33:46;;;;;;;7.50;4.20;;;;;;;;;;5113914;28;20435;-59
2023/04/16 11:36:12;;;;;;;4.07;3.27;;;;;;;;;;5113482;28;20252;-59
2023/04/16 11:38:42;;;;;;;3.67;2.90;;;;;;;;;;5111045;28;20256;-58
2023/04/16 11:41:10;;;;;;;6.80;4.77;;;;;;;;;;5108657;28;20268;-58
2023/04/16 11:43:39;;;;;;;4.90;3.87;;;;;;;;;;5108575;28;20278;-59
2023/04/16 11:46:06;;;;;;;4.20;2.80;;;;;;;;;;5108516;28;20368;-59
2023/04/16 11:48:52;;;;;;;8.73;4.23;;;;;;;;;;5110584;28;20252;-58
2023/04/16 11:51:19;;;;;;;;;;;;;;;;;;5114085;28;20288;-59
2023/04/16 11:53:53;;;;;;;5.00;3.40;;;;;;;;;;5113582;28;19911;-59
2023/04/16 11:56:28;;;;;;;5.23;3.57;;;;;;;;;;5113442;28;20241;-58
2023/04/16 11:59:07;;;;;;;12.43;4.53;;;;;;;;;;5112923;28;20272;-58
2023/04/16 12:01:35;;;;;;;6.03;3.27;;;;;;;;;;5109557;28;20027;-59
2023/04/16 12:04:02;;;;;;;3.77;3.33;;;;;;;;;;5108261;28;20313;-58
2023/04/16 12:06:30;;;;;;;3.77;3.37;;;;;;;;;;5108197;28;20260;-58
2023/04/16 12:08:57;;;;;;;4.27;3.30;;;;;;;;;;5108113;28;20815;-59
2023/04/16 12:11:40;;;;;;;5.23;3.70;;;;;;;;;;5111491;28;20258;-58
2023/04/16 12:14:07;;;;;;;5.43;3.87;;;;;;;;;;5113167;28;20614;-58
2023/04/16 12:16:34;;;;;;;4.63;4.00;;;;;;;;;;5113306;28;20256;-58
2023/04/16 12:19:05;;;;;;;5.70;3.40;;;;;;;;;;5112840;28;20279;-58
2023/04/16 12:21:38;;;;;;;6.53;4.23;;;;;;;;;;5112952;28;20275;-59
2023/04/16 12:24:06;;;;;;;2.87;2.40;;;;;;;;;;5107694;28;20264;-58
2023/04/16 12:26:51;;;;;;;5.07;3.90;;;;;;;;;;5107734;28;20642;-59
2023/04/16 12:29:20;;;;;;;4.30;3.55;;;;;;;;;;5107917;28;20244;-58
2023/04/16 12:31:47;;;;;;;4.87;3.20;;;;;;;;;;5107705;28;20032;-58
2023/04/16 12:34:14;;;;;;;6.83;4.13;;;;;;;;;;5112464;28;20253;-58
2023/04/16 12:36:41;;;;;;;4.27;2.93;;;;;;;;;;5112644;28;20260;-58
2023/04/16 12:39:09;;;;;;;3.30;2.23;;;;;;;;;;5112489;28;20277;-58
2023/04/16 12:41:40;;;;;;;5.70;4.03;;;;;;;;;;5112819;28;20263;-58
2023/04/16 12:44:13;;;;;;;4.80;3.50;;;;;;;;;;5112849;28;20248;-58
2023/04/16 12:46:41;;;;;;;5.03;3.67;;;;;;;;;;5107669;28;20265;-58
2023/04/16 12:49:08;;;;;;;4.00;3.33;;;;;;;;;;5107102;28;20366;-59
2023/04/16 12:51:35;;;;;;;5.57;4.50;;;;;;;;;;5107435;28;20263;-58
2023/04/16 12:54:03;;;;;;;4.67;3.03;;;;;;;;;;5107562;28;20264;-59
2023/04/16 12:56:30;;;;;;;5.07;3.77;;;;;;;;;;5112268;28;20287;-58
2023/04/16 12:58:57;;;;;;;6.87;4.73;;;;;;;;;;5112497;28;20307;-58
2023/04/16 13:01:23;;;;;;;4.70;4.10;;;;;;;;;;5112746;28;20332;-58
2023/04/16 13:03:50;;;;;;;20.07;4.87;;;;;;;;;;5112479;28;20339;-58
2023/04/16 13:06:17;;;;;;;5.40;4.37;;;;;;;;;;5112236;28;20308;-58
2023/04/16 13:08:44;;;;;;;6.40;5.67;;;;;;;;;;5107287;28;20264;-58
2023/04/16 13:11:11;;;;;;;7.87;6.30;;;;;;;;;;5107359;28;20095;-59
2023/04/16 13:13:38;;;;;;;5.97;5.20;;;;;;;;;;5107263;28;20430;-59
2023/04/16 13:16:07;;;;;;;7.97;5.20;;;;;;;;;;5107321;28;20102;-59
2023/04/16 13:18:35;;;;;;;11.73;6.57;;;;;;;;;;5093716;28;20038;-58
2023/04/16 13:21:02;;;;;;;7.77;5.77;;;;;;;;;;5111786;28;20036;-59
2023/04/16 13:23:29;;;;;;;6.60;5.30;;;;;;;;;;5112464;28;20024;-59
2023/04/16 13:25:55;;;;;;;6.87;4.57;;;;;;;;;;5112594;28;20057;-58
2023/04/16 13:28:22;;;;;;;5.13;4.63;;;;;;;;;;5112223;28;20094;-59
2023/04/16 13:30:49;;;;;;;6.23;5.37;;;;;;;;;;5107005;28;20108;-59
2023/04/16 13:33:16;;;;;;;7.07;5.37;;;;;;;;;;5107137;28;20153;-59
2023/04/16 13:35:43;;;;;;;7.17;4.80;;;;;;;;;;5107106;28;20024;-59
2023/04/16 13:38:09;;;;;;;3.70;3.20;;;;;;;;;;5106868;28;20032;-59
2023/04/16 13:40:36;;;;;;;4.77;3.40;;;;;;;;;;5111083;28;20032;-59
2023/04/16 13:43:03;;;;;;;5.00;4.03;;;;;;;;;;5112480;28;20390;-59
2023/04/16 13:45:29;;;;;;;6.53;3.87;;;;;;;;;;5112249;28;20020;-59
2023/04/16 13:47:56;;;;;;;3.63;3.33;;;;;;;;;;5114921;28;20099;-59
2023/04/16 13:50:23;;;;;;;4.97;3.90;;;;;;;;;;5115924;28;20058;-59
2023/04/16 13:52:49;;;;;;;4.87;3.80;;;;;;;;;;5111227;28;20107;-59
2023/04/16 13:55:19;;;;;;;4.47;3.37;;;;;;;;;;5110539;28;20367;-59
2023/04/16 13:57:46;;;;;;;4.50;3.07;;;;;;;;;;5110634;28;20470;-59
2023/04/16 14:00:14;;;;;;;5.43;3.27;;;;;;;;;;5110414;28;20490;-61
2023/04/16 14:02:41;;;;;;;2.93;2.43;;;;;;;;;;5114256;28;20031;-59
2023/04/16 14:05:08;;;;;;;5.43;4.33;;;;;;;;;;5115241;28;20539;-59
2023/04/16 14:07:35;;;;;;;6.00;4.23;;;;;;;;;;5115767;28;20357;-59
2023/04/16 14:10:02;;;;;;;4.00;3.33;;;;;;;;;;5114905;28;20028;-59
2023/04/16 14:12:28;;;;;;;5.97;4.43;;;;;;;;;;5115498;28;20026;-59
2023/04/16 14:14:56;;;;;;;7.67;3.50;;;;;;;;;;5111491;28;20023;-60
2023/04/16 14:17:22;;;;;;;5.83;3.00;;;;;;;;;;5110173;28;20066;-59
2023/04/16 14:19:49;;;;;;;3.87;2.87;;;;;;;;;;5110258;28;20105;-59
2023/04/16 14:22:17;;;;;;;10.77;3.03;;;;;;;;;;5109833;28;20102;-59
2023/04/16 14:24:44;;;;;;;4.53;3.57;;;;;;;;;;5113474;28;20028;-59
2023/04/16 14:27:11;;;;;;;4.90;3.40;;;;;;;;;;5114858;28;20466;-59
2023/04/16 14:29:37;;;;;;;7.60;3.90;;;;;;;;;;5115195;28;20027;-60
2023/04/16 14:32:05;;;;;;;5.00;3.67;;;;;;;;;;5115161;28;20030;-60
2023/04/16 14:34:32;;;;;;;4.30;3.40;;;;;;;;;;5114866;28;20057;-60
2023/04/16 14:36:58;;;;;;;10.23;4.57;;;;;;;;;;5111332;28;20183;-60
2023/04/16 14:39:25;;;;;;;3.73;3.07;;;;;;;;;;5109767;28;20611;-60
2023/04/16 14:41:52;;;;;;;4.67;3.33;;;;;;;;;;5109386;28;20024;-60
2023/04/16 14:44:19;;;;;;;5.83;2.93;;;;;;;;;;5109799;28;20422;-60
2023/04/16 14:46:46;;;;;;;3.90;2.93;;;;;;;;;;5112490;28;20058;-60
2023/04/16 14:49:13;;;;;;;3.40;2.73;;;;;;;;;;5114797;28;20050;-60
2023/04/16 14:51:40;;;;;;;5.13;3.50;;;;;;;;;;5114379;28;20099;-60
2023/04/16 14:54:06;;;;;;;7.03;3.10;;;;;;;;;;5114772;28;20374;-60
2023/04/16 14:56:33;;;;;;;3.37;3.00;;;;;;;;;;5114537;28;20023;-60
2023/04/16 14:59:00;;;;;;;3.70;2.80;;;;;;;;;;5110559;28;20027;-60
2023/04/16 15:01:27;;;;;;;6.90;3.60;;;;;;;;;;5109576;28;20112;-60
2023/04/16 15:03:55;;;;;;;3.43;2.73;;;;;;;;;;5109255;28;20026;-60